sensor_id;sensor_type;location;lat;lon;timestamp;P1;durP1;ratioP1;P2;durP2;ratioP2
40931;SDS011;36257;46.052;12.540;2024-01-11T00:02:18;9.73;;;8.70;;
40931;SDS011;36257;46.052;12.540;2024-01-11T00:04:43;9.30;;;8.40;;
40931;SDS011;36257;46.052;12.540;2024-01-11T00:07:09;8.77;;;7.87;;
40931;SDS011;36257;46.052;12.540;2024-01-11T00:09:39;9.60;;;8.67;;
40931;SDS011;36257;46.052;12.540;2024-01-11T00:12:06;10.87;;;9.23;;
40931;SDS011;36257;46.052;12.540;2024-01-11T00:14:32;10.07;;;8.97;;
40931;SDS011;36257;46.052;12.540;2024-01-11T00:16:57;8.30;;;7.50;;
40931;SDS011;36257;46.052;12.540;2024-01-11T00:19:23;8.57;;;7.83;;
40931;SDS011;36257;46.052;12.540;2024-01-11T00:21:49;8.93;;;7.80;;
40931;SDS011;36257;46.052;12.540;2024-01-11T00:24:14;11.03;;;8.97;;
40931;SDS011;36257;46.052;12.540;2024-01-11T00:26:40;30.37;;;15.80;;
40931;SDS011;36257;46.052;12.540;2024-01-11T00:29:06;76.07;;;26.00;;
40931;SDS011;36257;46.052;12.540;2024-01-11T00:31:32;41.73;;;19.90;;
40931;SDS011;36257;46.052;12.540;2024-01-11T00:33:58;19.20;;;13.00;;
40931;SDS011;36257;46.052;12.540;2024-01-11T00:36:24;9.80;;;7.90;;
40931;SDS011;36257;46.052;12.540;2024-01-11T00:38:49;9.93;;;8.93;;
40931;SDS011;36257;46.052;12.540;2024-01-11T00:41:15;9.27;;;8.30;;
40931;SDS011;36257;46.052;12.540;2024-01-11T00:43:41;9.23;;;8.33;;
40931;SDS011;36257;46.052;12.540;2024-01-11T00:46:07;9.73;;;8.73;;
40931;SDS011;36257;46.052;12.540;2024-01-11T00:48:33;10.07;;;9.07;;
40931;SDS011;36257;46.052;12.540;2024-01-11T00:50:58;10.63;;;9.00;;
40931;SDS011;36257;46.052;12.540;2024-01-11T00:53:24;10.83;;;9.50;;
40931;SDS011;36257;46.052;12.540;2024-01-11T00:55:55;10.07;;;9.03;;
40931;SDS011;36257;46.052;12.540;2024-01-11T00:58:21;8.83;;;7.97;;
40931;SDS011;36257;46.052;12.540;2024-01-11T01:00:47;8.60;;;7.77;;
40931;SDS011;36257;46.052;12.540;2024-01-11T01:03:12;8.53;;;7.63;;
40931;SDS011;36257;46.052;12.540;2024-01-11T01:05:39;9.60;;;8.80;;
40931;SDS011;36257;46.052;12.540;2024-01-11T01:08:04;8.57;;;7.77;;
40931;SDS011;36257;46.052;12.540;2024-01-11T01:10:30;7.67;;;6.90;;
40931;SDS011;36257;46.052;12.540;2024-01-11T01:12:56;9.57;;;8.70;;
40931;SDS011;36257;46.052;12.540;2024-01-11T01:15:21;9.23;;;8.53;;
40931;SDS011;36257;46.052;12.540;2024-01-11T01:17:47;8.80;;;8.00;;
40931;SDS011;36257;46.052;12.540;2024-01-11T01:20:12;7.93;;;7.17;;
40931;SDS011;36257;46.052;12.540;2024-01-11T01:22:39;8.73;;;7.82;;
40931;SDS011;36257;46.052;12.540;2024-01-11T01:25:05;9.00;;;8.27;;
40931;SDS011;36257;46.052;12.540;2024-01-11T01:27:31;8.63;;;7.83;;
40931;SDS011;36257;46.052;12.540;2024-01-11T01:29:56;9.53;;;8.70;;
40931;SDS011;36257;46.052;12.540;2024-01-11T01:32:22;8.37;;;7.50;;
40931;SDS011;36257;46.052;12.540;2024-01-11T01:34:48;9.00;;;8.10;;
40931;SDS011;36257;46.052;12.540;2024-01-11T01:37:13;9.70;;;8.80;;
40931;SDS011;36257;46.052;12.540;2024-01-11T01:39:39;9.07;;;8.23;;
40931;SDS011;36257;46.052;12.540;2024-01-11T01:42:05;10.10;;;8.77;;
40931;SDS011;36257;46.052;12.540;2024-01-11T01:44:31;7.00;;;6.40;;
40931;SDS011;36257;46.052;12.540;2024-01-11T01:46:57;9.47;;;8.67;;
40931;SDS011;36257;46.052;12.540;2024-01-11T01:49:23;9.20;;;8.10;;
40931;SDS011;36257;46.052;12.540;2024-01-11T01:51:50;7.63;;;6.93;;
40931;SDS011;36257;46.052;12.540;2024-01-11T01:54:17;9.97;;;9.07;;
40931;SDS011;36257;46.052;12.540;2024-01-11T01:56:44;8.60;;;7.60;;
40931;SDS011;36257;46.052;12.540;2024-01-11T01:59:10;7.50;;;6.73;;
40931;SDS011;36257;46.052;12.540;2024-01-11T02:01:36;9.03;;;8.23;;
40931;SDS011;36257;46.052;12.540;2024-01-11T02:04:02;8.20;;;7.40;;
40931;SDS011;36257;46.052;12.540;2024-01-11T02:06:28;8.50;;;7.80;;
40931;SDS011;36257;46.052;12.540;2024-01-11T02:08:57;9.40;;;8.60;;
40931;SDS011;36257;46.052;12.540;2024-01-11T02:11:25;7.67;;;6.83;;
40931;SDS011;36257;46.052;12.540;2024-01-11T02:13:53;8.30;;;7.50;;
40931;SDS011;36257;46.052;12.540;2024-01-11T02:16:19;8.00;;;7.23;;
40931;SDS011;36257;46.052;12.540;2024-01-11T02:18:44;9.27;;;8.37;;
40931;SDS011;36257;46.052;12.540;2024-01-11T02:21:11;9.70;;;7.93;;
40931;SDS011;36257;46.052;12.540;2024-01-11T02:23:42;8.17;;;7.37;;
40931;SDS011;36257;46.052;12.540;2024-01-11T02:26:15;7.77;;;6.97;;
40931;SDS011;36257;46.052;12.540;2024-01-11T02:28:44;9.87;;;9.07;;
40931;SDS011;36257;46.052;12.540;2024-01-11T02:31:11;8.40;;;7.60;;
40931;SDS011;36257;46.052;12.540;2024-01-11T02:33:39;8.70;;;7.90;;
40931;SDS011;36257;46.052;12.540;2024-01-11T02:36:05;9.60;;;8.63;;
40931;SDS011;36257;46.052;12.540;2024-01-11T02:38:31;9.93;;;8.93;;
40931;SDS011;36257;46.052;12.540;2024-01-11T02:40:59;8.37;;;7.67;;
40931;SDS011;36257;46.052;12.540;2024-01-11T02:43:25;9.60;;;8.70;;
40931;SDS011;36257;46.052;12.540;2024-01-11T02:45:55;9.10;;;8.30;;
40931;SDS011;36257;46.052;12.540;2024-01-11T02:48:21;8.63;;;7.73;;
40931;SDS011;36257;46.052;12.540;2024-01-11T02:50:48;8.73;;;7.83;;
40931;SDS011;36257;46.052;12.540;2024-01-11T02:53:14;10.07;;;9.10;;
40931;SDS011;36257;46.052;12.540;2024-01-11T02:55:39;9.57;;;8.67;;
40931;SDS011;36257;46.052;12.540;2024-01-11T02:58:05;9.17;;;8.27;;
40931;SDS011;36257;46.052;12.540;2024-01-11T03:00:31;11.00;;;8.40;;
40931;SDS011;36257;46.052;12.540;2024-01-11T03:02:56;10.37;;;9.37;;
40931;SDS011;36257;46.052;12.540;2024-01-11T03:05:22;9.63;;;8.80;;
40931;SDS011;36257;46.052;12.540;2024-01-11T03:07:47;9.63;;;8.63;;
40931;SDS011;36257;46.052;12.540;2024-01-11T03:10:13;10.67;;;8.47;;
40931;SDS011;36257;46.052;12.540;2024-01-11T03:12:39;9.07;;;7.60;;
40931;SDS011;36257;46.052;12.540;2024-01-11T03:15:05;10.53;;;9.30;;
40931;SDS011;36257;46.052;12.540;2024-01-11T03:17:31;10.03;;;9.13;;
40931;SDS011;36257;46.052;12.540;2024-01-11T03:19:57;9.33;;;8.43;;
40931;SDS011;36257;46.052;12.540;2024-01-11T03:22:24;10.40;;;9.20;;
40931;SDS011;36257;46.052;12.540;2024-01-11T03:24:50;10.67;;;9.60;;
40931;SDS011;36257;46.052;12.540;2024-01-11T03:27:16;9.87;;;8.70;;
40931;SDS011;36257;46.052;12.540;2024-01-11T03:29:41;9.50;;;8.53;;
40931;SDS011;36257;46.052;12.540;2024-01-11T03:32:07;9.20;;;8.20;;
40931;SDS011;36257;46.052;12.540;2024-01-11T03:34:32;8.40;;;7.57;;
40931;SDS011;36257;46.052;12.540;2024-01-11T03:36:58;8.77;;;7.97;;
40931;SDS011;36257;46.052;12.540;2024-01-11T03:39:25;8.77;;;7.67;;
40931;SDS011;36257;46.052;12.540;2024-01-11T03:41:51;9.00;;;7.53;;
40931;SDS011;36257;46.052;12.540;2024-01-11T03:44:16;9.87;;;8.10;;
40931;SDS011;36257;46.052;12.540;2024-01-11T03:46:42;9.77;;;8.43;;
40931;SDS011;36257;46.052;12.540;2024-01-11T03:49:07;10.30;;;8.33;;
40931;SDS011;36257;46.052;12.540;2024-01-11T03:51:34;8.83;;;8.03;;
40931;SDS011;36257;46.052;12.540;2024-01-11T03:53:59;9.07;;;8.13;;
40931;SDS011;36257;46.052;12.540;2024-01-11T03:56:25;9.67;;;8.03;;
40931;SDS011;36257;46.052;12.540;2024-01-11T03:58:51;10.77;;;9.37;;
40931;SDS011;36257;46.052;12.540;2024-01-11T04:01:16;9.93;;;9.03;;
40931;SDS011;36257;46.052;12.540;2024-01-11T04:03:42;9.77;;;8.77;;
40931;SDS011;36257;46.052;12.540;2024-01-11T04:06:08;10.07;;;8.93;;
40931;SDS011;36257;46.052;12.540;2024-01-11T04:08:33;11.17;;;9.67;;
40931;SDS011;36257;46.052;12.540;2024-01-11T04:11:01;9.33;;;8.43;;
40931;SDS011;36257;46.052;12.540;2024-01-11T04:13:29;9.20;;;8.30;;
40931;SDS011;36257;46.052;12.540;2024-01-11T04:15:54;8.07;;;7.23;;
40931;SDS011;36257;46.052;12.540;2024-01-11T04:18:20;7.97;;;7.03;;
40931;SDS011;36257;46.052;12.540;2024-01-11T04:20:45;8.57;;;7.63;;
40931;SDS011;36257;46.052;12.540;2024-01-11T04:23:11;7.77;;;7.00;;
40931;SDS011;36257;46.052;12.540;2024-01-11T04:25:36;8.33;;;7.53;;
40931;SDS011;36257;46.052;12.540;2024-01-11T04:28:02;7.90;;;7.17;;
40931;SDS011;36257;46.052;12.540;2024-01-11T04:30:28;7.57;;;6.90;;
40931;SDS011;36257;46.052;12.540;2024-01-11T04:32:54;8.60;;;7.90;;
40931;SDS011;36257;46.052;12.540;2024-01-11T04:35:19;8.03;;;7.27;;
40931;SDS011;36257;46.052;12.540;2024-01-11T04:37:45;7.23;;;6.53;;
40931;SDS011;36257;46.052;12.540;2024-01-11T04:40:10;9.23;;;8.27;;
40931;SDS011;36257;46.052;12.540;2024-01-11T04:42:36;8.83;;;7.83;;
40931;SDS011;36257;46.052;12.540;2024-01-11T04:45:02;9.10;;;8.03;;
40931;SDS011;36257;46.052;12.540;2024-01-11T04:47:29;7.87;;;7.17;;
40931;SDS011;36257;46.052;12.540;2024-01-11T04:49:55;7.77;;;6.97;;
40931;SDS011;36257;46.052;12.540;2024-01-11T04:52:21;8.50;;;7.67;;
40931;SDS011;36257;46.052;12.540;2024-01-11T04:54:46;7.87;;;7.07;;
40931;SDS011;36257;46.052;12.540;2024-01-11T04:57:12;8.50;;;7.80;;
40931;SDS011;36257;46.052;12.540;2024-01-11T04:59:38;9.00;;;7.43;;
40931;SDS011;36257;46.052;12.540;2024-01-11T05:02:03;7.40;;;6.70;;
40931;SDS011;36257;46.052;12.540;2024-01-11T05:04:29;9.13;;;8.23;;
40931;SDS011;36257;46.052;12.540;2024-01-11T05:06:54;8.33;;;7.60;;
40931;SDS011;36257;46.052;12.540;2024-01-11T05:09:20;9.73;;;8.73;;
40931;SDS011;36257;46.052;12.540;2024-01-11T05:11:46;9.20;;;8.20;;
40931;SDS011;36257;46.052;12.540;2024-01-11T05:14:11;9.93;;;8.60;;
40931;SDS011;36257;46.052;12.540;2024-01-11T05:16:37;12.27;;;8.60;;
40931;SDS011;36257;46.052;12.540;2024-01-11T05:19:04;7.47;;;6.85;;
40931;SDS011;36257;46.052;12.540;2024-01-11T05:21:29;9.57;;;8.57;;
40931;SDS011;36257;46.052;12.540;2024-01-11T05:23:55;9.80;;;8.97;;
40931;SDS011;36257;46.052;12.540;2024-01-11T05:26:21;10.20;;;8.83;;
40931;SDS011;36257;46.052;12.540;2024-01-11T05:28:47;8.90;;;8.00;;
40931;SDS011;36257;46.052;12.540;2024-01-11T05:31:13;11.17;;;8.90;;
40931;SDS011;36257;46.052;12.540;2024-01-11T05:33:40;9.68;;;8.68;;
40931;SDS011;36257;46.052;12.540;2024-01-11T05:36:06;8.37;;;7.40;;
40931;SDS011;36257;46.052;12.540;2024-01-11T05:38:32;9.23;;;8.32;;
40931;SDS011;36257;46.052;12.540;2024-01-11T05:40:58;9.10;;;8.20;;
40931;SDS011;36257;46.052;12.540;2024-01-11T05:43:24;8.67;;;7.77;;
40931;SDS011;36257;46.052;12.540;2024-01-11T05:45:50;10.77;;;9.57;;
40931;SDS011;36257;46.052;12.540;2024-01-11T05:48:16;10.00;;;9.00;;
40931;SDS011;36257;46.052;12.540;2024-01-11T05:50:42;9.67;;;8.67;;
40931;SDS011;36257;46.052;12.540;2024-01-11T05:53:09;11.63;;;10.15;;
40931;SDS011;36257;46.052;12.540;2024-01-11T05:55:35;11.17;;;10.07;;
40931;SDS011;36257;46.052;12.540;2024-01-11T05:58:00;10.77;;;9.67;;
40931;SDS011;36257;46.052;12.540;2024-01-11T06:00:26;9.73;;;8.63;;
40931;SDS011;36257;46.052;12.540;2024-01-11T06:02:52;11.07;;;9.93;;
40931;SDS011;36257;46.052;12.540;2024-01-11T06:05:17;11.10;;;10.07;;
40931;SDS011;36257;46.052;12.540;2024-01-11T06:07:43;11.47;;;10.27;;
40931;SDS011;36257;46.052;12.540;2024-01-11T06:10:09;12.47;;;11.27;;
40931;SDS011;36257;46.052;12.540;2024-01-11T06:12:35;10.23;;;9.23;;
40931;SDS011;36257;46.052;12.540;2024-01-11T06:15:01;10.40;;;9.30;;
40931;SDS011;36257;46.052;12.540;2024-01-11T06:17:27;11.67;;;10.40;;
40931;SDS011;36257;46.052;12.540;2024-01-11T06:19:55;11.53;;;10.43;;
40931;SDS011;36257;46.052;12.540;2024-01-11T06:22:20;11.40;;;9.57;;
40931;SDS011;36257;46.052;12.540;2024-01-11T06:24:46;11.10;;;10.00;;
40931;SDS011;36257;46.052;12.540;2024-01-11T06:27:12;11.23;;;10.13;;
40931;SDS011;36257;46.052;12.540;2024-01-11T06:29:38;10.53;;;9.43;;
40931;SDS011;36257;46.052;12.540;2024-01-11T06:32:04;10.93;;;9.33;;
40931;SDS011;36257;46.052;12.540;2024-01-11T06:34:30;10.37;;;9.23;;
40931;SDS011;36257;46.052;12.540;2024-01-11T06:36:56;12.20;;;10.30;;
40931;SDS011;36257;46.052;12.540;2024-01-11T06:39:21;15.70;;;11.40;;
40931;SDS011;36257;46.052;12.540;2024-01-11T06:41:47;11.00;;;9.90;;
40931;SDS011;36257;46.052;12.540;2024-01-11T06:44:13;12.07;;;8.97;;
40931;SDS011;36257;46.052;12.540;2024-01-11T06:46:38;9.23;;;8.43;;
40931;SDS011;36257;46.052;12.540;2024-01-11T06:49:06;10.87;;;9.77;;
40931;SDS011;36257;46.052;12.540;2024-01-11T06:51:32;11.90;;;9.03;;
40931;SDS011;36257;46.052;12.540;2024-01-11T06:53:58;9.40;;;8.53;;
40931;SDS011;36257;46.052;12.540;2024-01-11T06:56:26;9.07;;;8.17;;
40931;SDS011;36257;46.052;12.540;2024-01-11T06:58:51;8.73;;;7.93;;
40931;SDS011;36257;46.052;12.540;2024-01-11T07:01:17;9.77;;;8.83;;
40931;SDS011;36257;46.052;12.540;2024-01-11T07:03:43;8.80;;;8.00;;
40931;SDS011;36257;46.052;12.540;2024-01-11T07:06:09;9.60;;;8.70;;
40931;SDS011;36257;46.052;12.540;2024-01-11T07:08:35;12.83;;;8.70;;
40931;SDS011;36257;46.052;12.540;2024-01-11T07:11:01;9.80;;;8.80;;
40931;SDS011;36257;46.052;12.540;2024-01-11T07:13:30;16.37;;;8.80;;
40931;SDS011;36257;46.052;12.540;2024-01-11T07:15:58;8.53;;;7.67;;
40931;SDS011;36257;46.052;12.540;2024-01-11T07:18:24;8.50;;;7.43;;
40931;SDS011;36257;46.052;12.540;2024-01-11T07:20:51;9.87;;;8.63;;
40931;SDS011;36257;46.052;12.540;2024-01-11T07:23:24;9.20;;;8.30;;
40931;SDS011;36257;46.052;12.540;2024-01-11T07:25:49;8.63;;;7.83;;
40931;SDS011;36257;46.052;12.540;2024-01-11T07:28:15;9.67;;;8.67;;
40931;SDS011;36257;46.052;12.540;2024-01-11T07:30:42;10.38;;;9.38;;
40931;SDS011;36257;46.052;12.540;2024-01-11T07:33:08;9.20;;;8.33;;
40931;SDS011;36257;46.052;12.540;2024-01-11T07:35:34;7.97;;;7.20;;
40931;SDS011;36257;46.052;12.540;2024-01-11T07:38:00;8.00;;;7.30;;
40931;SDS011;36257;46.052;12.540;2024-01-11T07:40:26;11.97;;;8.53;;
40931;SDS011;36257;46.052;12.540;2024-01-11T07:42:51;7.50;;;6.90;;
40931;SDS011;36257;46.052;12.540;2024-01-11T07:58:14;7.97;;;7.27;;
40931;SDS011;36257;46.052;12.540;2024-01-11T08:00:40;9.07;;;7.03;;
40931;SDS011;36257;46.052;12.540;2024-01-11T08:03:06;8.90;;;8.10;;
40931;SDS011;36257;46.052;12.540;2024-01-11T08:05:33;9.25;;;8.40;;
40931;SDS011;36257;46.052;12.540;2024-01-11T08:07:59;8.27;;;7.57;;
40931;SDS011;36257;46.052;12.540;2024-01-11T08:10:28;9.57;;;8.77;;
40931;SDS011;36257;46.052;12.540;2024-01-11T08:15:21;8.70;;;7.80;;
40931;SDS011;36257;46.052;12.540;2024-01-11T08:35:55;13.97;;;12.57;;
40931;SDS011;36257;46.052;12.540;2024-01-11T08:38:21;15.47;;;12.40;;
40931;SDS011;36257;46.052;12.540;2024-01-11T08:40:46;13.47;;;11.57;;
40931;SDS011;36257;46.052;12.540;2024-01-11T08:43:13;12.07;;;10.77;;
40931;SDS011;36257;46.052;12.540;2024-01-11T08:45:39;12.97;;;10.80;;
40931;SDS011;36257;46.052;12.540;2024-01-11T08:48:04;13.23;;;11.80;;
40931;SDS011;36257;46.052;12.540;2024-01-11T08:50:30;11.67;;;10.47;;
40931;SDS011;36257;46.052;12.540;2024-01-11T08:55:33;13.20;;;9.33;;
40931;SDS011;36257;46.052;12.540;2024-01-11T08:57:58;12.57;;;11.27;;
40931;SDS011;36257;46.052;12.540;2024-01-11T09:00:24;14.00;;;10.97;;
40931;SDS011;36257;46.052;12.540;2024-01-11T09:02:49;12.07;;;10.67;;
40931;SDS011;36257;46.052;12.540;2024-01-11T09:05:15;12.70;;;10.20;;
40931;SDS011;36257;46.052;12.540;2024-01-11T09:07:41;11.57;;;10.07;;
40931;SDS011;36257;46.052;12.540;2024-01-11T09:10:07;11.63;;;9.63;;
40931;SDS011;36257;46.052;12.540;2024-01-11T09:12:37;11.63;;;10.43;;
40931;SDS011;36257;46.052;12.540;2024-01-11T09:15:02;12.40;;;11.17;;
40931;SDS011;36257;46.052;12.540;2024-01-11T09:17:28;14.73;;;12.17;;
40931;SDS011;36257;46.052;12.540;2024-01-11T09:19:54;15.63;;;12.90;;
40931;SDS011;36257;46.052;12.540;2024-01-11T09:22:20;17.43;;;13.10;;
40931;SDS011;36257;46.052;12.540;2024-01-11T09:24:45;15.67;;;13.23;;
40931;SDS011;36257;46.052;12.540;2024-01-11T09:27:11;14.93;;;12.80;;
40931;SDS011;36257;46.052;12.540;2024-01-11T09:29:41;15.77;;;13.37;;
40931;SDS011;36257;46.052;12.540;2024-01-11T09:32:09;14.07;;;12.40;;
40931;SDS011;36257;46.052;12.540;2024-01-11T09:34:35;15.75;;;12.38;;
40931;SDS011;36257;46.052;12.540;2024-01-11T09:37:00;14.68;;;11.95;;
40931;SDS011;36257;46.052;12.540;2024-01-11T09:39:26;16.08;;;12.57;;
40931;SDS011;36257;46.052;12.540;2024-01-11T09:42:08;17.98;;;11.77;;
40931;SDS011;36257;46.052;12.540;2024-01-11T09:44:34;11.75;;;10.55;;
40931;SDS011;36257;46.052;12.540;2024-01-11T09:47:02;16.05;;;11.65;;
40931;SDS011;36257;46.052;12.540;2024-01-11T09:49:31;17.45;;;13.20;;
40931;SDS011;36257;46.052;12.540;2024-01-11T09:51:59;18.10;;;13.80;;
40931;SDS011;36257;46.052;12.540;2024-01-11T09:54:26;23.67;;;15.95;;
40931;SDS011;36257;46.052;12.540;2024-01-11T09:56:53;24.05;;;18.17;;
40931;SDS011;36257;46.052;12.540;2024-01-11T09:59:22;21.50;;;16.42;;
40931;SDS011;36257;46.052;12.540;2024-01-11T10:01:49;22.40;;;17.10;;
40931;SDS011;36257;46.052;12.540;2024-01-11T10:04:16;20.90;;;15.48;;
40931;SDS011;36257;46.052;12.540;2024-01-11T10:06:42;18.83;;;14.82;;
40931;SDS011;36257;46.052;12.540;2024-01-11T10:09:08;21.85;;;16.17;;
40931;SDS011;36257;46.052;12.540;2024-01-11T10:11:34;18.45;;;14.75;;
40931;SDS011;36257;46.052;12.540;2024-01-11T10:14:01;18.55;;;13.07;;
40931;SDS011;36257;46.052;12.540;2024-01-11T10:16:27;15.45;;;12.27;;
40931;SDS011;36257;46.052;12.540;2024-01-11T10:18:56;20.65;;;15.77;;
40931;SDS011;36257;46.052;12.540;2024-01-11T10:21:23;16.80;;;12.80;;
40931;SDS011;36257;46.052;12.540;2024-01-11T10:23:49;12.07;;;10.50;;
40931;SDS011;36257;46.052;12.540;2024-01-11T10:26:15;11.57;;;9.20;;
40931;SDS011;36257;46.052;12.540;2024-01-11T10:28:45;10.90;;;8.85;;
40931;SDS011;36257;46.052;12.540;2024-01-11T10:31:11;11.32;;;8.98;;
40931;SDS011;36257;46.052;12.540;2024-01-11T10:33:37;14.45;;;9.80;;
40931;SDS011;36257;46.052;12.540;2024-01-11T10:36:04;12.05;;;9.73;;
40931;SDS011;36257;46.052;12.540;2024-01-11T10:38:31;9.27;;;8.07;;
40931;SDS011;36257;46.052;12.540;2024-01-11T10:41:03;10.23;;;8.82;;
40931;SDS011;36257;46.052;12.540;2024-01-11T10:43:31;10.52;;;8.52;;
40931;SDS011;36257;46.052;12.540;2024-01-11T10:46:00;10.73;;;9.40;;
40931;SDS011;36257;46.052;12.540;2024-01-11T10:48:29;12.77;;;9.43;;
40931;SDS011;36257;46.052;12.540;2024-01-11T10:51:00;10.10;;;8.70;;
40931;SDS011;36257;46.052;12.540;2024-01-11T10:53:45;10.55;;;8.63;;
40931;SDS011;36257;46.052;12.540;2024-01-11T10:56:12;9.05;;;8.15;;
40931;SDS011;36257;46.052;12.540;2024-01-11T10:58:41;10.95;;;9.85;;
40931;SDS011;36257;46.052;12.540;2024-01-11T11:01:07;10.00;;;8.35;;
40931;SDS011;36257;46.052;12.540;2024-01-11T11:03:34;10.18;;;8.95;;
40931;SDS011;36257;46.052;12.540;2024-01-11T11:06:01;12.37;;;9.13;;
40931;SDS011;36257;46.052;12.540;2024-01-11T11:08:27;10.10;;;8.75;;
40931;SDS011;36257;46.052;12.540;2024-01-11T11:11:00;10.25;;;9.23;;
40931;SDS011;36257;46.052;12.540;2024-01-11T11:13:31;11.82;;;9.20;;
40931;SDS011;36257;46.052;12.540;2024-01-11T11:15:57;15.38;;;10.18;;
40931;SDS011;36257;46.052;12.540;2024-01-11T11:18:23;18.20;;;9.50;;
40931;SDS011;36257;46.052;12.540;2024-01-11T11:20:50;12.93;;;8.95;;
40931;SDS011;36257;46.052;12.540;2024-01-11T11:23:17;13.25;;;9.65;;
40931;SDS011;36257;46.052;12.540;2024-01-11T11:25:47;13.50;;;10.80;;
40931;SDS011;36257;46.052;12.540;2024-01-11T11:28:14;15.10;;;11.18;;
40931;SDS011;36257;46.052;12.540;2024-01-11T11:30:42;16.55;;;11.82;;
40931;SDS011;36257;46.052;12.540;2024-01-11T11:33:09;16.85;;;12.00;;
40931;SDS011;36257;46.052;12.540;2024-01-11T11:35:36;15.52;;;10.82;;
40931;SDS011;36257;46.052;12.540;2024-01-11T11:38:02;11.30;;;9.48;;
40931;SDS011;36257;46.052;12.540;2024-01-11T11:40:37;14.45;;;11.27;;
40931;SDS011;36257;46.052;12.540;2024-01-11T11:43:08;15.00;;;11.88;;
40931;SDS011;36257;46.052;12.540;2024-01-11T11:45:34;14.20;;;11.02;;
40931;SDS011;36257;46.052;12.540;2024-01-11T11:50:47;16.90;;;12.85;;
40931;SDS011;36257;46.052;12.540;2024-01-11T11:53:13;16.48;;;13.27;;
40931;SDS011;36257;46.052;12.540;2024-01-11T11:55:38;16.83;;;13.90;;
40931;SDS011;36257;46.052;12.540;2024-01-11T11:58:04;18.05;;;14.52;;
40931;SDS011;36257;46.052;12.540;2024-01-11T12:00:30;18.88;;;14.38;;
40931;SDS011;36257;46.052;12.540;2024-01-11T12:02:58;17.23;;;13.43;;
40931;SDS011;36257;46.052;12.540;2024-01-11T12:05:28;18.80;;;13.85;;
40931;SDS011;36257;46.052;12.540;2024-01-11T12:07:54;18.05;;;14.32;;
40931;SDS011;36257;46.052;12.540;2024-01-11T12:10:20;18.42;;;15.02;;
40931;SDS011;36257;46.052;12.540;2024-01-11T12:12:46;23.75;;;15.45;;
40931;SDS011;36257;46.052;12.540;2024-01-11T12:15:11;18.45;;;14.40;;
40931;SDS011;36257;46.052;12.540;2024-01-11T12:17:37;19.55;;;15.05;;
40931;SDS011;36257;46.052;12.540;2024-01-11T12:20:07;18.42;;;13.65;;
40931;SDS011;36257;46.052;12.540;2024-01-11T12:22:33;18.38;;;15.00;;
40931;SDS011;36257;46.052;12.540;2024-01-11T12:24:59;22.75;;;15.90;;
40931;SDS011;36257;46.052;12.540;2024-01-11T12:27:24;20.30;;;15.88;;
40931;SDS011;36257;46.052;12.540;2024-01-11T12:29:51;21.73;;;14.93;;
40931;SDS011;36257;46.052;12.540;2024-01-11T12:32:17;21.63;;;15.45;;
40931;SDS011;36257;46.052;12.540;2024-01-11T12:34:43;19.17;;;15.85;;
40931;SDS011;36257;46.052;12.540;2024-01-11T12:37:10;19.60;;;15.13;;
40931;SDS011;36257;46.052;12.540;2024-01-11T12:39:37;16.83;;;14.07;;
40931;SDS011;36257;46.052;12.540;2024-01-11T12:42:04;22.52;;;16.95;;
40931;SDS011;36257;46.052;12.540;2024-01-11T12:44:30;18.77;;;14.82;;
40931;SDS011;36257;46.052;12.540;2024-01-11T12:46:57;20.30;;;14.90;;
40931;SDS011;36257;46.052;12.540;2024-01-11T12:49:23;19.17;;;14.98;;
40931;SDS011;36257;46.052;12.540;2024-01-11T12:51:49;20.73;;;14.52;;
40931;SDS011;36257;46.052;12.540;2024-01-11T12:54:15;19.73;;;15.07;;
40931;SDS011;36257;46.052;12.540;2024-01-11T12:56:44;17.67;;;14.18;;
40931;SDS011;36257;46.052;12.540;2024-01-11T12:59:10;17.85;;;14.68;;
40931;SDS011;36257;46.052;12.540;2024-01-11T13:01:37;21.67;;;15.00;;
40931;SDS011;36257;46.052;12.540;2024-01-11T13:04:03;18.33;;;15.15;;
40931;SDS011;36257;46.052;12.540;2024-01-11T13:06:29;23.02;;;15.63;;
40931;SDS011;36257;46.052;12.540;2024-01-11T13:08:56;22.25;;;15.52;;
40931;SDS011;36257;46.052;12.540;2024-01-11T13:11:22;18.70;;;15.57;;
40931;SDS011;36257;46.052;12.540;2024-01-11T13:13:49;20.83;;;16.50;;
40931;SDS011;36257;46.052;12.540;2024-01-11T13:16:16;18.45;;;14.38;;
40931;SDS011;36257;46.052;12.540;2024-01-11T13:18:44;19.35;;;14.82;;
40931;SDS011;36257;46.052;12.540;2024-01-11T13:21:10;16.48;;;14.45;;
40931;SDS011;36257;46.052;12.540;2024-01-11T13:23:37;21.00;;;15.50;;
40931;SDS011;36257;46.052;12.540;2024-01-11T13:26:03;20.80;;;16.30;;
40931;SDS011;36257;46.052;12.540;2024-01-11T13:28:29;16.98;;;13.52;;
40931;SDS011;36257;46.052;12.540;2024-01-11T13:30:55;18.52;;;14.57;;
40931;SDS011;36257;46.052;12.540;2024-01-11T13:33:21;16.75;;;13.95;;
40931;SDS011;36257;46.052;12.540;2024-01-11T13:35:48;21.40;;;14.52;;
40931;SDS011;36257;46.052;12.540;2024-01-11T13:38:14;20.55;;;15.85;;
40931;SDS011;36257;46.052;12.540;2024-01-11T13:40:40;20.77;;;13.38;;
40931;SDS011;36257;46.052;12.540;2024-01-11T13:43:08;19.60;;;15.77;;
40931;SDS011;36257;46.052;12.540;2024-01-11T13:45:34;17.48;;;13.88;;
40931;SDS011;36257;46.052;12.540;2024-01-11T13:48:03;18.48;;;14.38;;
40931;SDS011;36257;46.052;12.540;2024-01-11T13:50:30;21.38;;;14.70;;
40931;SDS011;36257;46.052;12.540;2024-01-11T13:52:56;16.48;;;13.40;;
40931;SDS011;36257;46.052;12.540;2024-01-11T13:55:21;17.80;;;13.52;;
40931;SDS011;36257;46.052;12.540;2024-01-11T13:57:50;19.15;;;15.88;;
40931;SDS011;36257;46.052;12.540;2024-01-11T14:00:18;20.83;;;15.70;;
40931;SDS011;36257;46.052;12.540;2024-01-11T14:02:44;19.27;;;14.10;;
40931;SDS011;36257;46.052;12.540;2024-01-11T14:05:11;16.80;;;13.73;;
40931;SDS011;36257;46.052;12.540;2024-01-11T14:10:05;16.45;;;13.32;;
40931;SDS011;36257;46.052;12.540;2024-01-11T14:12:33;15.45;;;13.55;;
40931;SDS011;36257;46.052;12.540;2024-01-11T14:15:05;16.25;;;13.02;;
40931;SDS011;36257;46.052;12.540;2024-01-11T14:17:32;22.90;;;15.13;;
40931;SDS011;36257;46.052;12.540;2024-01-11T14:19:59;16.95;;;13.73;;
40931;SDS011;36257;46.052;12.540;2024-01-11T14:22:25;18.25;;;13.32;;
40931;SDS011;36257;46.052;12.540;2024-01-11T14:24:50;17.77;;;14.20;;
40931;SDS011;36257;46.052;12.540;2024-01-11T14:27:16;19.65;;;13.95;;
40931;SDS011;36257;46.052;12.540;2024-01-11T14:29:42;17.35;;;13.63;;
40931;SDS011;36257;46.052;12.540;2024-01-11T14:32:08;17.42;;;14.35;;
40931;SDS011;36257;46.052;12.540;2024-01-11T14:34:33;18.60;;;15.05;;
40931;SDS011;36257;46.052;12.540;2024-01-11T14:36:59;15.82;;;13.27;;
40931;SDS011;36257;46.052;12.540;2024-01-11T14:39:25;16.77;;;13.20;;
40931;SDS011;36257;46.052;12.540;2024-01-11T14:41:51;17.13;;;13.95;;
40931;SDS011;36257;46.052;12.540;2024-01-11T14:44:17;18.70;;;14.32;;
40931;SDS011;36257;46.052;12.540;2024-01-11T14:46:43;27.10;;;18.77;;
40931;SDS011;36257;46.052;12.540;2024-01-11T14:49:09;19.38;;;15.77;;
40931;SDS011;36257;46.052;12.540;2024-01-11T14:51:35;19.02;;;13.98;;
40931;SDS011;36257;46.052;12.540;2024-01-11T14:54:02;24.10;;;14.90;;
40931;SDS011;36257;46.052;12.540;2024-01-11T14:56:29;18.70;;;14.60;;
40931;SDS011;36257;46.052;12.540;2024-01-11T14:58:57;17.17;;;14.35;;